Terminal Aerodrome Forecast
Issued by NWS

Home | Current Version | Previous Version | Text Only | Print | Product List | Glossary On
Versions: 1 2 3 4 5 6 7 8 9 10 11 12 13 14 15 16 17 18 19
647
FTUS44 KOHX 280520
TAFCKV
TAF
KCKV 280520Z 2806/2906 13002KT P6SM SCT250
     FM281300 17010G20KT P6SM SCT030 BKN120
     FM282100 18012G22KT P6SM BKN035 BKN250=

USA.gov is the U.S. government's official web portal to all federal, state and local government web resources and services.